sensor_id;sensor_type;location;lat;lon;timestamp;pressure;altitude;pressure_sealevel;temperature;humidity
58534;BME280;44109;52.398;7.024;2022-11-15T00:01:09;100719.69;;;9.50;93.14
58534;BME280;44109;52.398;7.024;2022-11-15T00:03:41;100711.50;;;9.57;93.06
58534;BME280;44109;52.398;7.024;2022-11-15T00:06:10;100710.31;;;9.58;92.37
58534;BME280;44109;52.398;7.024;2022-11-15T00:08:37;100700.69;;;9.71;92.65
58534;BME280;44109;52.398;7.024;2022-11-15T00:11:05;100705.59;;;9.78;92.84
58534;BME280;44109;52.398;7.024;2022-11-15T00:13:33;100705.66;;;9.81;92.72
58534;BME280;44109;52.398;7.024;2022-11-15T00:16:01;100707.34;;;9.86;93.03
58534;BME280;44109;52.398;7.024;2022-11-15T00:18:29;100699.13;;;9.93;93.00
58534;BME280;44109;52.398;7.024;2022-11-15T00:21:03;100692.06;;;9.96;92.68
58534;BME280;44109;52.398;7.024;2022-11-15T00:23:34;100705.13;;;9.95;92.15
58534;BME280;44109;52.398;7.024;2022-11-15T00:26:02;100693.28;;;9.98;92.13
58534;BME280;44109;52.398;7.024;2022-11-15T00:28:30;100696.84;;;9.99;91.43
58534;BME280;44109;52.398;7.024;2022-11-15T00:31:00;100686.47;;;9.92;90.66
58534;BME280;44109;52.398;7.024;2022-11-15T00:33:28;100686.59;;;9.99;91.42
58534;BME280;44109;52.398;7.024;2022-11-15T00:36:00;100673.47;;;9.96;91.19
58534;BME280;44109;52.398;7.024;2022-11-15T00:38:30;100675.63;;;9.83;91.45
58534;BME280;44109;52.398;7.024;2022-11-15T00:41:02;100661.63;;;9.76;91.63
58534;BME280;44109;52.398;7.024;2022-11-15T00:43:32;100672.91;;;9.87;91.38
58534;BME280;44109;52.398;7.024;2022-11-15T00:46:00;100677.22;;;9.84;92.30
58534;BME280;44109;52.398;7.024;2022-11-15T00:48:29;100682.09;;;9.72;91.93
58534;BME280;44109;52.398;7.024;2022-11-15T00:50:57;100677.22;;;9.84;92.72
58534;BME280;44109;52.398;7.024;2022-11-15T00:53:25;100677.66;;;9.86;92.76
58534;BME280;44109;52.398;7.024;2022-11-15T00:55:53;100661.91;;;9.90;92.36
58534;BME280;44109;52.398;7.024;2022-11-15T00:58:22;100664.78;;;9.98;93.13
58534;BME280;44109;52.398;7.024;2022-11-15T01:00:49;100653.03;;;9.81;93.31
58534;BME280;44109;52.398;7.024;2022-11-15T01:03:17;100669.16;;;9.99;93.64
58534;BME280;44109;52.398;7.024;2022-11-15T01:05:44;100665.66;;;10.02;93.53
58534;BME280;44109;52.398;7.024;2022-11-15T01:08:13;100659.72;;;10.03;93.49
58534;BME280;44109;52.398;7.024;2022-11-15T01:10:41;100661.75;;;10.06;93.33
58534;BME280;44109;52.398;7.024;2022-11-15T01:13:09;100594.31;;;9.72;93.48
58534;BME280;44109;52.398;7.024;2022-11-15T01:15:40;100651.06;;;10.05;93.40
58534;BME280;44109;52.398;7.024;2022-11-15T01:18:08;100634.84;;;10.07;94.28
58534;BME280;44109;52.398;7.024;2022-11-15T01:20:39;100600.75;;;9.80;93.73
58534;BME280;44109;52.398;7.024;2022-11-15T01:23:08;100630.47;;;10.06;94.27
58534;BME280;44109;52.398;7.024;2022-11-15T01:25:36;100619.41;;;10.06;94.36
58534;BME280;44109;52.398;7.024;2022-11-15T01:28:03;100593.75;;;9.86;94.77
58534;BME280;44109;52.398;7.024;2022-11-15T01:30:31;100633.25;;;10.06;95.34
58534;BME280;44109;52.398;7.024;2022-11-15T01:33:00;100633.66;;;10.08;95.09
58534;BME280;44109;52.398;7.024;2022-11-15T01:35:27;100628.25;;;10.15;95.60
58534;BME280;44109;52.398;7.024;2022-11-15T01:37:55;100617.16;;;10.15;95.67
58534;BME280;44109;52.398;7.024;2022-11-15T01:40:22;100620.34;;;10.17;96.02
58534;BME280;44109;52.398;7.024;2022-11-15T01:42:50;100618.16;;;10.26;95.79
58534;BME280;44109;52.398;7.024;2022-11-15T01:45:18;100624.31;;;10.16;96.20
58534;BME280;44109;52.398;7.024;2022-11-15T01:47:48;100609.34;;;10.21;96.03
58534;BME280;44109;52.398;7.024;2022-11-15T01:50:21;100613.84;;;10.29;96.24
58534;BME280;44109;52.398;7.024;2022-11-15T01:52:52;100604.03;;;10.35;96.08
58534;BME280;44109;52.398;7.024;2022-11-15T01:55:22;100576.00;;;10.17;96.30
58534;BME280;44109;52.398;7.024;2022-11-15T01:57:56;100605.28;;;10.37;96.49
58534;BME280;44109;52.398;7.024;2022-11-15T02:00:26;100605.69;;;10.39;96.48
58534;BME280;44109;52.398;7.024;2022-11-15T02:02:55;100605.81;;;10.47;96.58
58534;BME280;44109;52.398;7.024;2022-11-15T02:05:24;100607.47;;;10.51;96.77
58534;BME280;44109;52.398;7.024;2022-11-15T02:07:53;100600.72;;;10.52;96.62
58534;BME280;44109;52.398;7.024;2022-11-15T02:10:22;100605.94;;;10.54;96.66
58534;BME280;44109;52.398;7.024;2022-11-15T02:12:51;100601.19;;;10.58;96.69
58534;BME280;44109;52.398;7.024;2022-11-15T02:15:20;100596.16;;;10.63;96.56
58534;BME280;44109;52.398;7.024;2022-11-15T02:18:04;100592.94;;;10.61;96.78
58534;BME280;44109;52.398;7.024;2022-11-15T02:20:51;100578.19;;;10.54;96.39
58534;BME280;44109;52.398;7.024;2022-11-15T02:30:38;100584.72;;;10.69;96.92
58534;BME280;44109;52.398;7.024;2022-11-15T02:33:19;100573.47;;;10.58;96.89
58534;BME280;44109;52.398;7.024;2022-11-15T02:35:59;100586.81;;;10.49;97.50
58534;BME280;44109;52.398;7.024;2022-11-15T02:38:34;100581.16;;;10.68;97.25
58534;BME280;44109;52.398;7.024;2022-11-15T02:41:13;100540.09;;;10.51;96.63
58534;BME280;44109;52.398;7.024;2022-11-15T02:43:47;100563.66;;;10.64;96.94
58534;BME280;44109;52.398;7.024;2022-11-15T02:46:29;100579.19;;;10.69;96.96
58534;BME280;44109;52.398;7.024;2022-11-15T02:49:19;100580.03;;;10.76;96.69
58534;BME280;44109;52.398;7.024;2022-11-15T02:51:49;100580.47;;;10.78;97.30
58534;BME280;44109;52.398;7.024;2022-11-15T02:54:21;100582.13;;;10.83;97.17
58534;BME280;44109;52.398;7.024;2022-11-15T02:56:53;100577.03;;;10.88;97.05
58534;BME280;44109;52.398;7.024;2022-11-15T02:59:42;100568.31;;;10.90;97.43
58534;BME280;44109;52.398;7.024;2022-11-15T03:02:35;100571.63;;;10.99;97.52
58534;BME280;44109;52.398;7.024;2022-11-15T03:05:24;100571.66;;;11.03;97.21
58534;BME280;44109;52.398;7.024;2022-11-15T03:08:01;100561.34;;;11.00;97.17
58534;BME280;44109;52.398;7.024;2022-11-15T03:10:42;100570.06;;;11.02;97.43
58534;BME280;44109;52.398;7.024;2022-11-15T03:13:26;100574.03;;;11.01;97.29
58534;BME280;44109;52.398;7.024;2022-11-15T03:16:03;100566.88;;;11.00;97.19
58534;BME280;44109;52.398;7.024;2022-11-15T03:18:41;100550.88;;;10.89;97.52
58534;BME280;44109;52.398;7.024;2022-11-15T03:21:14;100561.50;;;11.14;97.56
58534;BME280;44109;52.398;7.024;2022-11-15T03:23:47;100557.16;;;11.16;97.23
58534;BME280;44109;52.398;7.024;2022-11-15T03:26:19;100553.22;;;11.17;97.56
58534;BME280;44109;52.398;7.024;2022-11-15T03:28:54;100563.19;;;11.26;97.69
58534;BME280;44109;52.398;7.024;2022-11-15T03:31:28;100562.34;;;11.18;97.06
58534;BME280;44109;52.398;7.024;2022-11-15T03:34:24;100564.75;;;11.23;97.16
58534;BME280;44109;52.398;7.024;2022-11-15T03:36:54;100570.38;;;11.27;97.07
58534;BME280;44109;52.398;7.024;2022-11-15T03:39:23;100565.56;;;11.24;97.28
58534;BME280;44109;52.398;7.024;2022-11-15T03:41:59;100573.84;;;11.20;98.26
58534;BME280;44109;52.398;7.024;2022-11-15T03:44:40;100569.47;;;11.19;98.42
58534;BME280;44109;52.398;7.024;2022-11-15T03:47:17;100569.63;;;11.33;98.10
58534;BME280;44109;52.398;7.024;2022-11-15T03:49:55;100549.78;;;11.35;97.92
58534;BME280;44109;52.398;7.024;2022-11-15T03:52:31;100569.31;;;11.42;97.66
58534;BME280;44109;52.398;7.024;2022-11-15T03:55:03;100565.00;;;11.45;97.67
58534;BME280;44109;52.398;7.024;2022-11-15T03:57:31;100568.09;;;11.39;97.39
58534;BME280;44109;52.398;7.024;2022-11-15T03:59:59;100561.03;;;11.46;97.66
58534;BME280;44109;52.398;7.024;2022-11-15T04:02:26;100565.81;;;11.49;97.65
58534;BME280;44109;52.398;7.024;2022-11-15T04:04:55;100566.63;;;11.53;97.85
58534;BME280;44109;52.398;7.024;2022-11-15T04:07:23;100567.03;;;11.51;97.47
58534;BME280;44109;52.398;7.024;2022-11-15T04:09:51;100550.72;;;11.46;97.75
58534;BME280;44109;52.398;7.024;2022-11-15T04:12:32;100557.91;;;11.51;98.19
58534;BME280;44109;52.398;7.024;2022-11-15T04:15:02;100555.56;;;11.56;97.66
58534;BME280;44109;52.398;7.024;2022-11-15T04:17:37;100552.06;;;11.63;97.61
58534;BME280;44109;52.398;7.024;2022-11-15T04:20:10;100549.28;;;11.63;97.18
58534;BME280;44109;52.398;7.024;2022-11-15T04:22:59;100549.28;;;11.63;97.58
58534;BME280;44109;52.398;7.024;2022-11-15T04:25:47;100552.44;;;11.61;97.11
58534;BME280;44109;52.398;7.024;2022-11-15T04:28:18;100546.84;;;11.58;97.44
58534;BME280;44109;52.398;7.024;2022-11-15T04:30:46;100554.84;;;11.63;97.75
58534;BME280;44109;52.398;7.024;2022-11-15T04:33:14;100550.88;;;11.64;97.36
58534;BME280;44109;52.398;7.024;2022-11-15T04:35:44;100550.88;;;11.64;97.63
58534;BME280;44109;52.398;7.024;2022-11-15T04:38:31;100550.09;;;11.67;97.71
58534;BME280;44109;52.398;7.024;2022-11-15T04:40:58;100553.72;;;11.71;97.78
58534;BME280;44109;52.398;7.024;2022-11-15T04:43:26;100553.78;;;11.78;97.86
58534;BME280;44109;52.398;7.024;2022-11-15T04:45:53;100556.59;;;11.82;97.96
58534;BME280;44109;52.398;7.024;2022-11-15T04:48:21;100558.22;;;11.83;97.82
58534;BME280;44109;52.398;7.024;2022-11-15T04:50:50;100558.59;;;11.81;97.92
58534;BME280;44109;52.398;7.024;2022-11-15T04:53:17;100560.22;;;11.82;98.04
58534;BME280;44109;52.398;7.024;2022-11-15T04:55:45;100559.44;;;11.89;97.91
58534;BME280;44109;52.398;7.024;2022-11-15T04:58:13;100557.50;;;11.93;98.15
58534;BME280;44109;52.398;7.024;2022-11-15T05:00:41;100566.28;;;11.95;98.20
58534;BME280;44109;52.398;7.024;2022-11-15T05:03:09;100561.44;;;11.88;98.24
58534;BME280;44109;52.398;7.024;2022-11-15T05:05:56;100566.28;;;11.95;98.35
58534;BME280;44109;52.398;7.024;2022-11-15T05:08:25;100565.50;;;12.02;98.63
58534;BME280;44109;52.398;7.024;2022-11-15T05:10:52;100563.97;;;12.08;98.42
58534;BME280;44109;52.398;7.024;2022-11-15T05:13:20;100568.72;;;12.07;98.49
58534;BME280;44109;52.398;7.024;2022-11-15T05:15:48;100560.38;;;12.04;98.66
58534;BME280;44109;52.398;7.024;2022-11-15T05:18:15;100566.38;;;12.09;98.79
58534;BME280;44109;52.398;7.024;2022-11-15T05:20:43;100561.66;;;12.17;98.86
58534;BME280;44109;52.398;7.024;2022-11-15T05:23:12;100570.06;;;12.24;98.72
58534;BME280;44109;52.398;7.024;2022-11-15T05:25:39;100560.94;;;12.27;98.53
58534;BME280;44109;52.398;7.024;2022-11-15T05:28:07;100561.34;;;12.29;98.83
58534;BME280;44109;52.398;7.024;2022-11-15T05:30:35;100556.22;;;12.31;98.75
58534;BME280;44109;52.398;7.024;2022-11-15T05:33:03;100557.03;;;12.35;98.65
58534;BME280;44109;52.398;7.024;2022-11-15T05:35:34;100551.44;;;12.32;98.78
58534;BME280;44109;52.398;7.024;2022-11-15T05:38:07;100554.66;;;12.37;98.52
58534;BME280;44109;52.398;7.024;2022-11-15T05:40:36;100550.69;;;12.42;98.60
58534;BME280;44109;52.398;7.024;2022-11-15T05:43:04;100545.94;;;12.42;98.59
58534;BME280;44109;52.398;7.024;2022-11-15T05:45:33;100546.69;;;12.39;98.41
58534;BME280;44109;52.398;7.024;2022-11-15T05:48:06;100542.75;;;12.44;98.50
58534;BME280;44109;52.398;7.024;2022-11-15T05:50:38;100541.16;;;12.43;98.64
58534;BME280;44109;52.398;7.024;2022-11-15T05:53:09;100538.81;;;12.52;98.68
58534;BME280;44109;52.398;7.024;2022-11-15T05:55:40;100551.50;;;12.42;98.61
58534;BME280;44109;52.398;7.024;2022-11-15T05:58:09;100537.22;;;12.48;98.78
58534;BME280;44109;52.398;7.024;2022-11-15T06:00:37;100548.78;;;12.57;98.55
58534;BME280;44109;52.398;7.024;2022-11-15T06:03:04;100552.00;;;12.59;98.81
58534;BME280;44109;52.398;7.024;2022-11-15T06:05:32;100535.63;;;12.47;98.63
58534;BME280;44109;52.398;7.024;2022-11-15T06:08:00;100553.19;;;12.65;98.75
58534;BME280;44109;52.398;7.024;2022-11-15T06:10:27;100556.38;;;12.63;98.83
58534;BME280;44109;52.398;7.024;2022-11-15T06:13:00;100566.34;;;12.68;98.82
58534;BME280;44109;52.398;7.024;2022-11-15T06:15:28;100559.97;;;12.64;98.74
58534;BME280;44109;52.398;7.024;2022-11-15T06:17:56;100568.72;;;12.69;98.60
58534;BME280;44109;52.398;7.024;2022-11-15T06:20:24;100563.53;;;12.64;98.46
58534;BME280;44109;52.398;7.024;2022-11-15T06:22:56;100569.91;;;12.65;98.64
58534;BME280;44109;52.398;7.024;2022-11-15T06:25:25;100563.13;;;12.62;98.40
58534;BME280;44109;52.398;7.024;2022-11-15T06:27:53;100575.41;;;12.58;99.15
58534;BME280;44109;52.398;7.024;2022-11-15T06:30:24;100583.78;;;12.61;99.21
58534;BME280;44109;52.398;7.024;2022-11-15T06:32:58;100567.88;;;12.62;99.61
58534;BME280;44109;52.398;7.024;2022-11-15T06:35:27;100577.13;;;12.77;99.66
58534;BME280;44109;52.398;7.024;2022-11-15T06:37:57;100574.75;;;12.79;99.58
58534;BME280;44109;52.398;7.024;2022-11-15T06:40:30;100574.75;;;12.79;99.60
58534;BME280;44109;52.398;7.024;2022-11-15T06:42:58;100576.38;;;12.87;100.00
58534;BME280;44109;52.398;7.024;2022-11-15T06:45:27;100575.56;;;12.83;99.91
58534;BME280;44109;52.398;7.024;2022-11-15T06:47:55;100570.03;;;12.90;100.00
58534;BME280;44109;52.398;7.024;2022-11-15T06:50:23;100571.59;;;12.87;99.71
58534;BME280;44109;52.398;7.024;2022-11-15T06:52:51;100570.03;;;12.90;99.91
58534;BME280;44109;52.398;7.024;2022-11-15T06:55:18;100564.88;;;12.95;100.00
58534;BME280;44109;52.398;7.024;2022-11-15T06:57:47;100573.66;;;13.01;100.00
58534;BME280;44109;52.398;7.024;2022-11-15T07:00:17;100566.06;;;12.91;100.00
58534;BME280;44109;52.398;7.024;2022-11-15T07:02:48;100580.41;;;13.00;100.00
58534;BME280;44109;52.398;7.024;2022-11-15T07:05:16;100596.31;;;13.00;100.00
58534;BME280;44109;52.398;7.024;2022-11-15T07:07:51;100591.91;;;12.99;100.00
58534;BME280;44109;52.398;7.024;2022-11-15T07:10:19;100599.47;;;12.94;100.00
58534;BME280;44109;52.398;7.024;2022-11-15T07:12:47;100594.75;;;13.06;100.00
58534;BME280;44109;52.398;7.024;2022-11-15T07:15:16;100601.91;;;13.10;100.00
58534;BME280;44109;52.398;7.024;2022-11-15T07:17:44;100601.13;;;13.10;100.00
58534;BME280;44109;52.398;7.024;2022-11-15T07:20:13;100587.16;;;12.95;100.00
58534;BME280;44109;52.398;7.024;2022-11-15T07:22:42;100599.94;;;13.11;100.00
58534;BME280;44109;52.398;7.024;2022-11-15T07:25:11;100602.72;;;13.14;100.00
58534;BME280;44109;52.398;7.024;2022-11-15T07:27:39;100603.50;;;13.11;100.00
58534;BME280;44109;52.398;7.024;2022-11-15T07:30:07;100601.16;;;13.13;100.00
58534;BME280;44109;52.398;7.024;2022-11-15T07:32:36;100603.56;;;13.18;100.00
58534;BME280;44109;52.398;7.024;2022-11-15T07:35:04;100609.91;;;13.15;100.00
58534;BME280;44109;52.398;7.024;2022-11-15T07:37:33;100604.38;;;13.23;100.00
58534;BME280;44109;52.398;7.024;2022-11-15T07:40:01;100603.91;;;13.17;100.00
58534;BME280;44109;52.398;7.024;2022-11-15T07:42:30;100601.13;;;13.17;100.00
58534;BME280;44109;52.398;7.024;2022-11-15T07:45:16;100594.78;;;13.20;100.00
58534;BME280;44109;52.398;7.024;2022-11-15T07:47:45;100603.59;;;13.22;100.00
58534;BME280;44109;52.398;7.024;2022-11-15T07:50:13;100603.94;;;13.20;100.00
58534;BME280;44109;52.398;7.024;2022-11-15T07:52:42;100600.41;;;13.24;100.00
58534;BME280;44109;52.398;7.024;2022-11-15T07:55:10;100611.94;;;13.26;100.00
58534;BME280;44109;52.398;7.024;2022-11-15T07:57:38;100605.19;;;13.30;100.00
58534;BME280;44109;52.398;7.024;2022-11-15T08:00:06;100601.25;;;13.31;100.00
58534;BME280;44109;52.398;7.024;2022-11-15T08:02:34;100600.44;;;13.27;100.00
58534;BME280;44109;52.398;7.024;2022-11-15T08:05:03;100578.06;;;13.13;100.00
58534;BME280;44109;52.398;7.024;2022-11-15T08:07:31;100604.41;;;13.33;100.00
58534;BME280;44109;52.398;7.024;2022-11-15T08:10:00;100604.84;;;13.35;100.00
58534;BME280;44109;52.398;7.024;2022-11-15T08:12:29;100602.06;;;13.35;100.00
58534;BME280;44109;52.398;7.024;2022-11-15T08:14:57;100606.81;;;13.31;100.00
58534;BME280;44109;52.398;7.024;2022-11-15T08:17:25;100599.63;;;13.27;100.00
58534;BME280;44109;52.398;7.024;2022-11-15T08:19:53;100594.88;;;13.31;100.00
58534;BME280;44109;52.398;7.024;2022-11-15T08:22:20;100601.25;;;13.31;100.00
58534;BME280;44109;52.398;7.024;2022-11-15T08:24:48;100594.09;;;13.37;100.00
58534;BME280;44109;52.398;7.024;2022-11-15T08:27:17;100597.28;;;13.47;100.00
58534;BME280;44109;52.398;7.024;2022-11-15T08:29:45;100596.50;;;13.50;100.00
58534;BME280;44109;52.398;7.024;2022-11-15T08:32:13;100583.78;;;13.56;100.00
58534;BME280;44109;52.398;7.024;2022-11-15T08:34:40;100584.16;;;13.58;100.00
58534;BME280;44109;52.398;7.024;2022-11-15T08:37:08;100588.56;;;13.59;100.00
58534;BME280;44109;52.398;7.024;2022-11-15T08:39:36;100582.97;;;13.66;100.00
58534;BME280;44109;52.398;7.024;2022-11-15T08:42:03;100591.75;;;13.68;100.00
58534;BME280;44109;52.398;7.024;2022-11-15T08:44:32;100519.25;;;13.39;100.00
58534;BME280;44109;52.398;7.024;2022-11-15T08:47:00;100575.84;;;13.72;100.00
58534;BME280;44109;52.398;7.024;2022-11-15T08:49:28;100577.44;;;13.73;100.00
58534;BME280;44109;52.398;7.024;2022-11-15T08:51:56;100568.28;;;13.73;100.00
58534;BME280;44109;52.398;7.024;2022-11-15T08:54:23;100578.22;;;13.77;100.00
58534;BME280;44109;52.398;7.024;2022-11-15T08:56:51;100568.28;;;13.73;100.00
58534;BME280;44109;52.398;7.024;2022-11-15T08:59:18;100567.47;;;13.76;100.00
58534;BME280;44109;52.398;7.024;2022-11-15T09:01:47;100574.66;;;13.77;100.00
58534;BME280;44109;52.398;7.024;2022-11-15T09:04:15;100561.50;;;13.77;100.00
58534;BME280;44109;52.398;7.024;2022-11-15T09:06:42;100569.84;;;13.70;100.00
58534;BME280;44109;52.398;7.024;2022-11-15T09:09:10;100571.06;;;13.69;100.00
58534;BME280;44109;52.398;7.024;2022-11-15T09:11:38;100557.09;;;13.76;100.00
58534;BME280;44109;52.398;7.024;2022-11-15T09:14:05;100556.31;;;13.83;100.00
58534;BME280;44109;52.398;7.024;2022-11-15T09:16:33;100556.72;;;13.81;100.00
58534;BME280;44109;52.398;7.024;2022-11-15T09:19:02;100562.28;;;13.88;100.00
58534;BME280;44109;52.398;7.024;2022-11-15T09:21:30;100551.53;;;13.98;100.00
58534;BME280;44109;52.398;7.024;2022-11-15T09:23:58;100555.50;;;14.18;100.00
58534;BME280;44109;52.398;7.024;2022-11-15T09:26:25;100549.50;;;14.30;100.00
58534;BME280;44109;52.398;7.024;2022-11-15T09:28:53;100550.28;;;14.34;100.00
58534;BME280;44109;52.398;7.024;2022-11-15T09:31:20;100542.31;;;14.36;100.00
58534;BME280;44109;52.398;7.024;2022-11-15T09:33:48;100542.34;;;14.22;100.00
58534;BME280;44109;52.398;7.024;2022-11-15T09:36:17;100545.50;;;14.35;100.00
58534;BME280;44109;52.398;7.024;2022-11-15T09:38:45;100537.56;;;14.26;100.00
58534;BME280;44109;52.398;7.024;2022-11-15T09:41:29;100534.38;;;14.17;100.00
58534;BME280;44109;52.398;7.024;2022-11-15T09:44:16;100535.13;;;14.53;100.00
58534;BME280;44109;52.398;7.024;2022-11-15T09:47:05;100538.69;;;14.68;100.00
58534;BME280;44109;52.398;7.024;2022-11-15T09:49:51;100533.53;;;14.56;100.00
58534;BME280;44109;52.398;7.024;2022-11-15T09:52:21;100520.00;;;14.51;100.00
58534;BME280;44109;52.398;7.024;2022-11-15T09:54:51;100518.34;;;14.60;100.00
58534;BME280;44109;52.398;7.024;2022-11-15T09:57:23;100529.47;;;14.71;100.00
58534;BME280;44109;52.398;7.024;2022-11-15T10:00:11;100541.03;;;14.77;100.00
58534;BME280;44109;52.398;7.024;2022-11-15T10:02:55;100527.88;;;14.74;99.97
58534;BME280;44109;52.398;7.024;2022-11-15T10:05:35;100530.66;;;14.77;98.45
58534;BME280;44109;52.398;7.024;2022-11-15T10:08:16;100531.84;;;14.80;97.83
58534;BME280;44109;52.398;7.024;2022-11-15T10:10:57;100527.88;;;14.70;97.86
58534;BME280;44109;52.398;7.024;2022-11-15T10:13:30;100534.28;;;14.67;97.42
58534;BME280;44109;52.398;7.024;2022-11-15T10:16:02;100529.13;;;14.47;96.52
58534;BME280;44109;52.398;7.024;2022-11-15T10:18:46;100543.16;;;14.12;95.99
58534;BME280;44109;52.398;7.024;2022-11-15T10:21:32;100540.75;;;14.28;96.05
58534;BME280;44109;52.398;7.024;2022-11-15T10:24:12;100539.91;;;14.38;95.03
58534;BME280;44109;52.398;7.024;2022-11-15T10:26:46;100538.31;;;14.44;94.18
58534;BME280;44109;52.398;7.024;2022-11-15T10:29:18;100489.78;;;14.03;92.92
58534;BME280;44109;52.398;7.024;2022-11-15T10:31:47;100537.56;;;14.26;92.33
58534;BME280;44109;52.398;7.024;2022-11-15T10:34:17;100542.75;;;14.06;91.62
58534;BME280;44109;52.398;7.024;2022-11-15T10:36:54;100508.91;;;14.01;92.07
58534;BME280;44109;52.398;7.024;2022-11-15T10:39:25;100526.00;;;14.24;92.22
58534;BME280;44109;52.398;7.024;2022-11-15T10:41:53;100531.56;;;14.35;92.86
58534;BME280;44109;52.398;7.024;2022-11-15T10:44:26;100527.16;;;14.41;92.83
58534;BME280;44109;52.398;7.024;2022-11-15T10:50:03;100518.00;;;14.37;90.35
58534;BME280;44109;52.398;7.024;2022-11-15T10:52:35;100527.94;;;14.56;92.57
58534;BME280;44109;52.398;7.024;2022-11-15T10:55:21;100510.00;;;14.57;92.84
58534;BME280;44109;52.398;7.024;2022-11-15T10:57:54;100521.50;;;14.73;93.07
58534;BME280;44109;52.398;7.024;2022-11-15T11:00:32;100513.13;;;14.73;93.44
58534;BME280;44109;52.398;7.024;2022-11-15T11:03:03;100503.94;;;14.76;92.36
58534;BME280;44109;52.398;7.024;2022-11-15T11:05:34;100502.31;;;14.82;91.28
58534;BME280;44109;52.398;7.024;2022-11-15T11:08:05;100495.84;;;15.00;92.04
58534;BME280;44109;52.398;7.024;2022-11-15T11:10:54;100491.03;;;15.04;92.20
58534;BME280;44109;52.398;7.024;2022-11-15T11:13:24;100494.28;;;14.95;92.07
58534;BME280;44109;52.398;7.024;2022-11-15T11:15:56;100480.84;;;14.68;89.82
58534;BME280;44109;52.398;7.024;2022-11-15T11:18:41;100472.53;;;14.51;90.66
58534;BME280;44109;52.398;7.024;2022-11-15T11:21:23;100474.13;;;14.52;89.71
58534;BME280;44109;52.398;7.024;2022-11-15T11:24:05;100486.50;;;14.51;89.72
58534;BME280;44109;52.398;7.024;2022-11-15T11:26:48;100487.25;;;14.47;88.93
58534;BME280;44109;52.398;7.024;2022-11-15T11:29:44;100476.13;;;14.55;90.02
58534;BME280;44109;52.398;7.024;2022-11-15T11:32:34;100481.22;;;14.74;91.59
58534;BME280;44109;52.398;7.024;2022-11-15T11:35:27;100469.31;;;14.63;89.56
58534;BME280;44109;52.398;7.024;2022-11-15T11:38:11;100475.16;;;14.86;90.77
58534;BME280;44109;52.398;7.024;2022-11-15T11:40:58;100478.22;;;15.10;86.73
58534;BME280;44109;52.398;7.024;2022-11-15T11:43:38;100475.75;;;15.22;87.40
58534;BME280;44109;52.398;7.024;2022-11-15T11:46:35;100468.97;;;15.20;86.42
58534;BME280;44109;52.398;7.024;2022-11-15T11:49:26;100462.84;;;15.39;88.26
58534;BME280;44109;52.398;7.024;2022-11-15T11:52:03;100452.59;;;15.22;86.24
58534;BME280;44109;52.398;7.024;2022-11-15T11:54:42;100449.38;;;15.23;84.38
58534;BME280;44109;52.398;7.024;2022-11-15T11:57:23;100458.81;;;15.44;86.15
58534;BME280;44109;52.398;7.024;2022-11-15T12:00:04;100444.47;;;15.42;85.82
58534;BME280;44109;52.398;7.024;2022-11-15T12:02:43;100449.41;;;15.20;82.11
58534;BME280;44109;52.398;7.024;2022-11-15T12:05:22;100442.84;;;15.44;84.30
58534;BME280;44109;52.398;7.024;2022-11-15T12:08:03;100439.63;;;15.46;84.15
58534;BME280;44109;52.398;7.024;2022-11-15T12:10:50;100427.72;;;15.38;83.12
58534;BME280;44109;52.398;7.024;2022-11-15T12:13:26;100404.66;;;15.27;83.21
58534;BME280;44109;52.398;7.024;2022-11-15T12:16:05;100438.41;;;15.51;83.17
58534;BME280;44109;52.398;7.024;2022-11-15T12:18:38;100437.09;;;15.66;82.63
58534;BME280;44109;52.398;7.024;2022-11-15T12:21:15;100437.69;;;15.84;84.35
58534;BME280;44109;52.398;7.024;2022-11-15T12:23:53;100429.28;;;15.88;84.78
58534;BME280;44109;52.398;7.024;2022-11-15T12:26:33;100423.66;;;15.91;84.03
58534;BME280;44109;52.398;7.024;2022-11-15T12:29:15;100414.25;;;15.71;80.22
58534;BME280;44109;52.398;7.024;2022-11-15T12:31:51;100404.75;;;15.65;83.09
58534;BME280;44109;52.398;7.024;2022-11-15T12:34:40;100420.16;;;15.80;82.28
58534;BME280;44109;52.398;7.024;2022-11-15T12:40:26;100420.47;;;15.89;82.98
58534;BME280;44109;52.398;7.024;2022-11-15T12:43:01;100422.66;;;15.71;79.09
58534;BME280;44109;52.398;7.024;2022-11-15T12:46:02;100416.31;;;15.67;79.78
58534;BME280;44109;52.398;7.024;2022-11-15T12:48:58;100415.22;;;15.54;77.68
58534;BME280;44109;52.398;7.024;2022-11-15T12:55:01;100412.00;;;15.55;80.07
58534;BME280;44109;52.398;7.024;2022-11-15T12:57:50;100407.75;;;15.40;79.17
58534;BME280;44109;52.398;7.024;2022-11-15T13:00:42;100404.53;;;15.41;79.62
58534;BME280;44109;52.398;7.024;2022-11-15T13:03:31;100402.69;;;15.24;77.92
58534;BME280;44109;52.398;7.024;2022-11-15T13:06:09;;;;15.18;
58534;BME280;44109;52.398;7.024;2022-11-15T13:09:03;100402.50;;;14.93;78.94
58534;BME280;44109;52.398;7.024;2022-11-15T13:11:53;100397.28;;;14.99;79.44
58534;BME280;44109;52.398;7.024;2022-11-15T13:14:44;100388.69;;;14.72;77.36
58534;BME280;44109;52.398;7.024;2022-11-15T13:17:37;100390.31;;;14.62;78.18
58534;BME280;44109;52.398;7.024;2022-11-15T13:20:21;100363.16;;;14.70;81.11
58534;BME280;44109;52.398;7.024;2022-11-15T13:23:02;100365.59;;;14.64;79.75
58534;BME280;44109;52.398;7.024;2022-11-15T13:26:08;100357.25;;;14.61;80.32
58534;BME280;44109;52.398;7.024;2022-11-15T13:28:43;100352.53;;;14.51;80.75
58534;BME280;44109;52.398;7.024;2022-11-15T13:31:26;100347.34;;;14.45;79.21
58534;BME280;44109;52.398;7.024;2022-11-15T13:34:28;100345.66;;;14.66;79.91
58534;BME280;44109;52.398;7.024;2022-11-15T13:36:59;100337.34;;;14.59;80.83